Time;durP1;ratioP1;P1;durP2;ratioP2;P2;SDS_P1;SDS_P2;PMS_P1;PMS_P2;Temp;Humidity;BMP_temperature;BMP_pressure;BME280_temperature;BME280_humidity;BME280_pressure;Samples;Min_cycle;Max_cycle;Signal;HPM_P1;HPM_P2
2022/07/15 00:01:49;;;;;;;9.60;2.55;;;15.50;99.90;;;;;;5013795;28;20501;-66
2022/07/15 00:04:15;;;;;;;10.73;2.65;;;15.60;99.90;;;;;;5012410;28;20517;-66
2022/07/15 00:06:40;;;;;;;8.60;2.88;;;15.60;99.90;;;;;;5013137;28;20138;-66
2022/07/15 00:09:06;;;;;;;9.20;2.72;;;15.40;99.90;;;;;;5012446;28;20040;-66
2022/07/15 00:11:36;;;;;;;9.05;2.78;;;15.40;99.90;;;;;;5013142;28;20125;-66
2022/07/15 00:14:02;;;;;;;17.90;5.80;;;15.30;99.90;;;;;;5012281;28;20084;-64
2022/07/15 00:16:27;;;;;;;8.43;2.58;;;15.30;99.90;;;;;;5014166;28;20030;-64
2022/07/15 00:18:53;;;;;;;8.20;3.20;;;15.20;99.90;;;;;;5013507;28;20036;-64
2022/07/15 00:21:18;;;;;;;10.65;3.88;;;15.30;99.90;;;;;;5013863;28;20021;-65
2022/07/15 00:23:44;;;;;;;14.45;4.13;;;15.20;99.90;;;;;;5014057;28;20030;-66
2022/07/15 00:26:09;;;;;;;5.85;3.78;;;15.10;99.90;;;;;;5013726;28;20022;-67
2022/07/15 00:28:35;;;;;;;10.40;5.07;;;15.00;99.90;;;;;;5013951;28;20479;-66
2022/07/15 00:31:01;;;;;;;6.18;3.17;;;15.10;99.90;;;;;;5013964;28;20377;-66
2022/07/15 00:33:27;;;;;;;8.02;4.00;;;15.10;99.90;;;;;;5013702;28;20037;-66
2022/07/15 00:35:52;;;;;;;5.60;3.70;;;15.10;99.90;;;;;;4996100;28;20034;-66
2022/07/15 00:38:18;;;;;;;7.30;3.25;;;15.00;99.90;;;;;;5013663;28;20054;-66
2022/07/15 00:40:45;;;;;;;8.63;3.10;;;15.00;99.90;;;;;;5013820;28;20551;-66
2022/07/15 00:43:11;;;;;;;9.90;3.35;;;14.90;99.90;;;;;;5013673;28;20034;-65
2022/07/15 00:45:37;;;;;;;10.55;3.53;;;15.20;99.90;;;;;;5013464;28;20080;-65
2022/07/15 00:48:43;;;;;;;6.82;2.67;;;15.70;99.90;;;;;;5006530;28;20029;-66
2022/07/15 00:51:08;;;;;;;;;;;14.80;99.90;;;;;;5013911;28;20034;-69
2022/07/15 00:53:34;;;;;;;7.72;3.00;;;14.80;99.90;;;;;;5013646;28;20339;-65
2022/07/15 00:55:59;;;;;;;11.77;3.90;;;14.70;99.90;;;;;;4979810;28;20068;-65
2022/07/15 00:58:25;;;;;;;10.48;3.95;;;14.60;99.90;;;;;;5012839;28;20096;-66
2022/07/15 01:00:51;;;;;;;12.70;4.47;;;14.50;99.90;;;;;;4995592;28;20030;-69
2022/07/15 01:03:17;;;;;;;12.82;5.28;;;14.40;99.90;;;;;;4995545;28;20044;-66
2022/07/15 01:05:43;;;;;;;8.13;4.43;;;14.90;99.90;;;;;;5012616;28;20018;-68
2022/07/15 01:08:08;;;;;;;10.27;4.68;;;14.30;99.90;;;;;;5011598;28;20104;-66
2022/07/15 01:10:34;;;;;;;8.20;3.65;;;14.40;99.90;;;;;;4996034;28;20030;-65
2022/07/15 01:13:02;;;;;;;12.85;4.35;;;14.50;99.90;;;;;;5013268;28;20109;-65
2022/07/15 01:15:28;;;;;;;12.48;4.18;;;14.50;99.90;;;;;;5012415;28;20026;-65
2022/07/15 01:17:53;;;;;;;16.15;4.93;;;14.90;99.90;;;;;;5012899;28;20038;-65
2022/07/15 01:20:19;;;;;;;9.45;3.30;;;14.70;99.90;;;;;;5012922;28;20037;-65
2022/07/15 01:22:45;;;;;;;10.20;4.15;;;14.60;99.90;;;;;;5013240;28;20021;-65
2022/07/15 01:25:10;;;;;;;9.10;4.32;;;14.70;99.90;;;;;;5012743;28;20506;-65
2022/07/15 01:27:36;;;;;;;17.98;6.05;;;14.70;99.90;;;;;;5013072;28;20025;-65
2022/07/15 01:30:01;;;;;;;15.80;4.75;;;14.80;99.90;;;;;;5013000;28;20040;-65
2022/07/15 01:32:27;;;;;;;10.27;3.55;;;14.80;99.90;;;;;;5013018;28;20045;-65
2022/07/15 01:34:53;;;;;;;11.20;4.32;;;14.90;99.90;;;;;;5012691;28;20026;-65
2022/07/15 01:37:18;;;;;;;14.07;4.53;;;15.00;99.90;;;;;;5012269;28;20062;-65
2022/07/15 01:39:44;;;;;;;12.40;3.63;;;15.10;99.90;;;;;;5013036;28;20049;-65
2022/07/15 01:42:09;;;;;;;13.48;3.67;;;15.20;99.90;;;;;;5012436;28;20049;-66
2022/07/15 01:44:35;;;;;;;11.98;4.03;;;15.30;99.90;;;;;;5012643;28;20042;-66
2022/07/15 01:47:01;;;;;;;10.07;3.70;;;15.30;99.90;;;;;;5011315;28;20026;-66
2022/07/15 01:49:31;;;;;;;7.50;3.13;;;15.40;99.90;;;;;;5012866;28;20522;-66
2022/07/15 01:51:57;;;;;;;9.68;3.08;;;15.40;99.90;;;;;;5012891;28;20101;-66
2022/07/15 01:54:23;;;;;;;5.45;3.20;;;15.40;99.90;;;;;;5012573;28;20030;-66
2022/07/15 01:56:49;;;;;;;6.82;3.10;;;15.40;99.90;;;;;;5012636;28;20096;-65
2022/07/15 01:59:15;;;;;;;6.35;3.13;;;15.40;99.90;;;;;;5012419;28;20080;-65
2022/07/15 02:01:42;;;;;;;9.95;3.25;;;15.90;99.90;;;;;;5012659;28;20379;-66
2022/07/15 02:04:08;;;;;;;12.63;3.67;;;15.50;99.90;;;;;;5012248;28;20092;-66
2022/07/15 02:06:33;;;;;;;13.80;3.53;;;15.50;99.90;;;;;;5012196;28;20033;-66
2022/07/15 02:08:59;;;;;;;8.98;3.70;;;15.50;99.90;;;;;;5012479;28;20029;-66
2022/07/15 02:11:27;;;;;;;11.65;3.95;;;16.50;99.90;;;;;;5012519;28;20022;-66
2022/07/15 02:13:57;;;;;;;11.63;3.00;;;15.50;99.90;;;;;;5012661;28;20030;-66
2022/07/15 02:16:24;;;;;;;6.35;2.88;;;15.70;99.90;;;;;;5013171;28;20395;-66
2022/07/15 02:18:49;;;;;;;8.50;3.00;;;15.60;99.90;;;;;;5016095;28;20062;-66
2022/07/15 02:21:14;;;;;;;13.55;3.25;;;15.80;99.90;;;;;;5016225;28;20065;-66
2022/07/15 02:23:40;;;;;;;8.05;2.50;;;15.70;99.90;;;;;;5015929;28;20522;-66
2022/07/15 02:26:05;;;;;;;10.55;3.38;;;15.60;99.90;;;;;;5016102;28;20167;-65
2022/07/15 02:28:31;;;;;;;10.77;3.33;;;15.70;99.90;;;;;;5015965;28;20075;-65
2022/07/15 02:30:57;;;;;;;9.48;3.17;;;15.70;99.90;;;;;;5016175;28;20054;-66
2022/07/15 02:33:22;;;;;;;14.13;3.80;;;15.60;99.90;;;;;;5016036;28;20034;-66
2022/07/15 02:35:48;;;;;;;10.70;3.33;;;15.40;99.90;;;;;;5014857;28;20034;-65
2022/07/15 02:38:13;;;;;;;8.13;3.00;;;15.30;99.90;;;;;;5015466;28;20041;-65
2022/07/15 02:40:40;;;;;;;9.65;3.38;;;15.10;99.90;;;;;;5016071;28;20022;-66
2022/07/15 02:43:05;;;;;;;9.30;3.05;;;15.00;99.90;;;;;;5015939;28;20093;-65
2022/07/15 02:45:33;;;;;;;9.63;3.28;;;14.90;99.90;;;;;;5015332;28;20526;-66
2022/07/15 02:47:59;;;;;;;12.98;3.60;;;14.70;99.90;;;;;;5015951;28;20061;-66
2022/07/15 02:50:25;;;;;;;19.02;4.65;;;14.70;99.90;;;;;;5015238;28;20065;-65
2022/07/15 02:52:50;;;;;;;10.90;3.33;;;14.70;99.90;;;;;;5014514;28;20559;-65
2022/07/15 02:55:17;;;;;;;11.32;4.10;;;14.70;99.90;;;;;;5015553;28;20018;-65
2022/07/15 02:57:43;;;;;;;14.18;4.20;;;14.70;99.90;;;;;;5015453;28;20391;-65
2022/07/15 03:00:11;;;;;;;9.15;3.50;;;14.90;99.90;;;;;;5015334;28;20028;-65
2022/07/15 03:02:36;;;;;;;10.23;3.40;;;14.90;99.90;;;;;;5015331;28;20073;-65
2022/07/15 03:05:02;;;;;;;12.25;4.03;;;15.00;99.90;;;;;;5015470;28;20045;-65
2022/07/15 03:07:28;;;;;;;17.83;3.97;;;15.00;99.90;;;;;;5015090;28;20506;-65
2022/07/15 03:09:54;;;;;;;17.75;4.25;;;15.00;99.90;;;;;;5015406;28;20048;-65
2022/07/15 03:12:19;;;;;;;11.23;4.50;;;14.90;99.90;;;;;;5015069;28;20057;-65
2022/07/15 03:14:45;;;;;;;16.00;5.05;;;14.70;99.90;;;;;;5015421;28;20018;-66
2022/07/15 03:17:10;;;;;;;12.20;4.60;;;14.60;99.90;;;;;;4997073;28;20394;-66
2022/07/15 03:19:36;;;;;;;13.00;4.75;;;14.50;99.90;;;;;;5014860;28;20026;-66
2022/07/15 03:22:02;;;;;;;13.57;5.40;;;14.40;99.90;;;;;;4997618;28;20041;-66
2022/07/15 03:24:27;;;;;;;15.25;5.15;;;14.40;99.90;;;;;;5015297;28;20108;-66
2022/07/15 03:26:53;;;;;;;14.80;5.82;;;14.30;99.90;;;;;;5013865;28;20075;-65
2022/07/15 03:29:19;;;;;;;10.65;5.00;;;14.30;99.90;;;;;;5014701;28;20026;-65
2022/07/15 03:31:44;;;;;;;13.38;5.43;;;14.20;99.90;;;;;;5015069;28;20030;-65
2022/07/15 03:34:10;;;;;;;8.25;4.70;;;14.10;99.90;;;;;;5014703;28;20057;-65
2022/07/15 03:36:38;;;;;;;13.40;5.03;;;15.30;99.90;;;;;;5014832;28;20037;-65
2022/07/15 03:39:07;;;;;;;19.40;5.82;;;14.00;99.90;;;;;;5014228;28;20066;-65
2022/07/15 03:41:33;;;;;;;18.33;5.20;;;14.00;99.90;;;;;;5014927;28;20113;-65
2022/07/15 03:44:00;;;;;;;14.85;6.18;;;13.90;99.90;;;;;;5014712;28;20054;-66
2022/07/15 03:46:25;;;;;;;18.45;5.95;;;13.90;99.90;;;;;;5014333;28;20085;-65
2022/07/15 03:48:51;;;;;;;16.75;5.70;;;13.70;99.90;;;;;;5014438;28;20034;-66
2022/07/15 03:51:17;;;;;;;15.63;5.63;;;13.80;99.90;;;;;;5014486;28;20037;-65
2022/07/15 03:53:42;;;;;;;11.25;5.20;;;13.80;99.90;;;;;;5014394;28;20095;-65
2022/07/15 03:56:08;;;;;;;16.10;5.95;;;13.70;99.90;;;;;;5014541;28;20030;-65
2022/07/15 03:58:33;;;;;;;16.33;6.03;;;13.70;99.90;;;;;;5014066;28;20489;-65
2022/07/15 04:00:59;;;;;;;13.52;6.53;;;13.70;99.90;;;;;;5013782;28;20041;-66
2022/07/15 04:03:24;;;;;;;21.83;6.40;;;13.70;99.90;;;;;;5013937;28;20056;-65
2022/07/15 04:05:50;;;;;;;17.20;5.35;;;13.60;99.90;;;;;;5013659;28;20022;-65
2022/07/15 04:08:15;;;;;;;19.38;6.07;;;13.70;99.90;;;;;;5011597;28;20052;-66
2022/07/15 04:10:41;;;;;;;18.58;5.97;;;13.60;99.90;;;;;;5014113;28;20033;-66
2022/07/15 04:13:07;;;;;;;12.98;6.30;;;13.70;99.90;;;;;;4996488;28;20040;-65
2022/07/15 04:15:32;;;;;;;11.68;5.82;;;13.70;99.90;;;;;;5013776;28;20117;-66
2022/07/15 04:17:58;;;;;;;14.85;6.95;;;13.70;99.90;;;;;;5013976;28;20037;-64
2022/07/15 04:20:24;;;;;;;17.70;6.45;;;13.70;99.90;;;;;;5013991;28;20029;-67
2022/07/15 04:22:50;;;;;;;15.15;6.10;;;13.80;99.90;;;;;;4995846;28;20369;-66
2022/07/15 04:25:19;;;;;;;12.27;5.50;;;13.90;99.90;;;;;;5013490;28;20109;-65
2022/07/15 04:27:45;;;;;;;16.10;5.22;;;14.10;99.90;;;;;;5013667;28;20499;-65
2022/07/15 04:30:11;;;;;;;11.90;5.75;;;14.40;99.90;;;;;;5013886;28;20072;-66
2022/07/15 04:32:37;;;;;;;19.00;5.22;;;14.70;99.90;;;;;;5013874;28;20030;-65
2022/07/15 04:35:03;;;;;;;11.95;5.05;;;15.00;99.90;;;;;;4996047;28;20040;-66
2022/07/15 04:37:47;;;;;;;17.17;5.28;;;15.20;99.90;;;;;;4995667;28;20033;-66
2022/07/15 04:40:13;;;;;;;11.27;5.90;;;15.40;99.90;;;;;;5011902;28;20030;-66
2022/07/15 04:42:39;;;;;;;10.88;5.28;;;15.50;99.90;;;;;;5012181;28;20411;-66
2022/07/15 04:45:05;;;;;;;12.90;5.13;;;15.50;99.90;;;;;;5013623;28;20018;-66
2022/07/15 04:47:31;;;;;;;11.07;5.68;;;15.50;99.90;;;;;;5013239;28;20033;-66
2022/07/15 04:52:44;;;;;;;15.95;6.55;;;15.30;99.90;;;;;;5010802;28;20157;-67
2022/07/15 04:55:09;;;;;;;30.00;8.43;;;15.40;99.90;;;;;;5012303;28;20033;-67
2022/07/15 04:57:35;;;;;;;27.92;9.65;;;15.40;99.90;;;;;;5012025;28;20022;-67
2022/07/15 05:00:01;;;;;;;14.68;7.00;;;15.70;99.90;;;;;;4995645;28;20029;-67
2022/07/15 05:02:26;;;;;;;32.05;12.15;;;15.60;99.90;;;;;;5012081;28;20025;-71
2022/07/15 05:04:52;;;;;;;15.25;7.05;;;15.60;99.90;;;;;;5012560;28;20109;-64
2022/07/15 05:07:17;;;;;;;12.25;5.88;;;15.70;99.90;;;;;;5013121;28;20120;-64
2022/07/15 05:09:43;;;;;;;11.55;5.47;;;16.00;99.90;;;;;;5013400;28;20029;-64
2022/07/15 05:12:08;;;;;;;11.57;4.60;;;16.30;99.90;;;;;;5013083;28;20056;-66
2022/07/15 05:14:35;;;;;;;13.38;5.60;;;16.70;99.90;;;;;;5011934;28;20129;-80
2022/07/15 05:17:00;;;;;;;14.75;4.80;;;17.20;99.90;;;;;;4995742;28;20439;-72
2022/07/15 05:19:26;;;;;;;14.23;4.35;;;18.10;99.90;;;;;;5012977;28;20029;-70
2022/07/15 05:21:51;;;;;;;12.23;4.30;;;18.20;99.90;;;;;;4979190;28;20080;-69
2022/07/15 05:24:18;;;;;;;7.43;4.63;;;18.80;99.90;;;;;;5011944;28;20025;-70
2022/07/15 05:26:44;;;;;;;10.35;3.88;;;18.00;99.90;;;;;;4995279;28;20053;-70
2022/07/15 05:29:10;;;;;;;8.73;4.20;;;18.10;99.90;;;;;;5011566;28;20107;-70
2022/07/15 05:31:35;;;;;;;8.43;3.92;;;18.10;99.90;;;;;;5012715;28;20108;-70
2022/07/15 05:34:01;;;;;;;9.68;3.78;;;18.30;99.90;;;;;;5012935;28;20026;-70
2022/07/15 05:36:27;;;;;;;10.32;3.55;;;18.50;99.90;;;;;;5012420;28;20678;-70
2022/07/15 05:38:52;;;;;;;11.73;3.85;;;18.60;99.90;;;;;;4995342;28;20117;-70
2022/07/15 05:41:18;;;;;;;12.23;3.80;;;18.30;99.90;;;;;;5012567;28;20026;-70
2022/07/15 05:43:43;;;;;;;7.22;3.80;;;18.30;99.90;;;;;;5012588;28;20034;-70
2022/07/15 05:46:09;;;;;;;10.50;3.95;;;18.30;99.90;;;;;;5012506;28;20073;-70
2022/07/15 05:48:35;;;;;;;8.93;3.40;;;18.30;99.90;;;;;;4995008;28;20641;-70
2022/07/15 05:51:00;;;;;;;10.18;3.70;;;18.70;99.90;;;;;;5013530;28;20033;-71
2022/07/15 05:53:26;;;;;;;9.32;3.50;;;19.30;99.90;;;;;;5014692;28;20028;-70
2022/07/15 05:55:52;;;;;;;8.73;3.65;;;19.20;99.90;;;;;;5015971;28;20026;-72
2022/07/15 05:58:18;;;;;;;16.52;4.85;;;18.70;99.90;;;;;;5015522;28;20068;-71
2022/07/15 06:00:44;;;;;;;18.17;7.20;;;19.00;99.90;;;;;;4998616;28;20078;-71
2022/07/15 06:03:09;;;;;;;14.57;6.45;;;19.70;99.30;;;;;;5015568;28;20030;-73
2022/07/15 06:05:35;;;;;;;11.75;3.25;;;20.50;97.60;;;;;;5016633;28;20502;-73
2022/07/15 06:08:01;;;;;;;6.97;3.00;;;20.10;97.10;;;;;;5015870;28;20096;-73
2022/07/15 06:10:26;;;;;;;8.73;3.03;;;19.80;98.20;;;;;;5014999;28;20034;-74
2022/07/15 06:12:55;;;;;;;5.32;2.80;;;20.00;97.90;;;;;;5016290;28;20029;-73
2022/07/15 06:15:20;;;;;;;10.73;3.55;;;20.10;95.70;;;;;;5016255;28;20109;-73
2022/07/15 06:17:46;;;;;;;6.88;2.53;;;20.30;96.00;;;;;;5014583;28;20440;-73
2022/07/15 06:20:12;;;;;;;11.23;3.30;;;21.30;94.00;;;;;;5015991;28;20018;-74
2022/07/15 06:22:38;;;;;;;8.93;2.75;;;21.40;93.80;;;;;;5016435;28;20160;-74
2022/07/15 06:25:04;;;;;;;7.35;2.55;;;20.90;93.60;;;;;;5015081;28;20075;-74
2022/07/15 06:27:30;;;;;;;11.05;3.72;;;21.10;94.40;;;;;;5015810;28;20475;-75
2022/07/15 06:29:56;;;;;;;5.95;2.65;;;21.70;93.70;;;;;;4998527;28;20032;-74
2022/07/15 06:32:22;;;;;;;7.15;2.85;;;21.50;92.80;;;;;;4997598;28;20027;-73
2022/07/15 06:34:47;;;;;;;8.52;2.97;;;21.70;92.30;;;;;;5015068;28;20034;-72
2022/07/15 06:37:13;;;;;;;5.90;2.42;;;23.10;91.20;;;;;;4996551;28;20041;-72
2022/07/15 06:39:38;;;;;;;7.38;2.83;;;21.90;91.20;;;;;;4997977;28;20033;-72
2022/07/15 06:42:04;;;;;;;12.73;5.10;;;20.30;93.40;;;;;;5015738;28;20028;-72
2022/07/15 06:44:30;;;;;;;8.70;2.50;;;22.50;91.80;;;;;;5013694;28;20030;-77
2022/07/15 06:46:55;;;;;;;10.80;3.33;;;23.30;86.60;;;;;;4998045;28;20026;-72
2022/07/15 06:49:21;;;;;;;9.48;3.42;;;23.40;86.50;;;;;;5014214;28;20105;-72
2022/07/15 06:51:47;;;;;;;18.27;5.88;;;24.00;86.10;;;;;;4997630;28;20394;-72
2022/07/15 06:54:12;;;;;;;8.90;3.55;;;23.30;86.00;;;;;;4997107;28;20026;-73
2022/07/15 06:56:38;;;;;;;12.07;4.63;;;23.10;84.00;;;;;;5015310;28;20499;-70
2022/07/15 06:59:04;;;;;;;8.63;3.83;;;23.00;85.30;;;;;;5015430;28;20038;-71
2022/07/15 07:01:29;;;;;;;8.90;3.42;;;22.00;88.80;;;;;;5014601;28;20032;-70
2022/07/15 07:03:55;;;;;;;7.03;3.22;;;21.20;91.90;;;;;;5014630;28;20497;-71
2022/07/15 07:06:21;;;;;;;8.63;3.33;;;21.50;91.70;;;;;;4996836;28;20022;-71
2022/07/15 07:08:47;;;;;;;10.18;3.47;;;22.30;90.50;;;;;;5015639;28;20026;-70
2022/07/15 07:11:13;;;;;;;12.60;4.15;;;23.20;87.50;;;;;;5015113;28;20030;-71
2022/07/15 07:13:39;;;;;;;16.25;5.78;;;23.60;83.00;;;;;;5015353;28;20471;-71
2022/07/15 07:16:05;;;;;;;12.10;6.85;;;21.20;91.40;;;;;;5015114;28;20040;-71
2022/07/15 07:18:31;;;;;;;17.02;5.82;;;20.60;92.70;;;;;;5015114;28;20044;-68
2022/07/15 07:21:17;;;;;;;9.85;4.28;;;21.00;92.80;;;;;;5015207;28;20029;-68
2022/07/15 07:23:43;;;;;;;12.05;4.32;;;20.90;91.10;;;;;;5014962;28;20107;-68
2022/07/15 07:29:30;;;;;;;7.00;3.05;;;19.40;93.30;;;;;;5015374;28;20072;-68
2022/07/15 07:31:55;;;;;;;8.02;3.53;;;19.10;93.80;;;;;;5015134;28;20025;-68
2022/07/15 07:34:21;;;;;;;10.02;4.15;;;19.00;94.90;;;;;;5014881;28;20026;-68
2022/07/15 07:36:46;;;;;;;9.13;3.20;;;18.80;95.10;;;;;;5014903;28;20388;-67
2022/07/15 07:39:15;;;;;;;9.13;3.97;;;19.10;95.20;;;;;;5014577;28;20026;-67
2022/07/15 07:41:41;;;;;;;8.55;3.58;;;19.30;95.20;;;;;;5013811;28;20380;-68
2022/07/15 07:44:06;;;;;;;4.75;2.70;;;19.00;95.80;;;;;;5014794;28;20022;-67
2022/07/15 07:46:32;;;;;;;10.35;3.47;;;18.50;96.30;;;;;;4997305;28;20029;-68
2022/07/15 07:48:58;;;;;;;9.63;2.92;;;18.30;97.30;;;;;;4997109;28;20036;-68
2022/07/15 07:51:23;;;;;;;7.93;4.10;;;19.00;97.60;;;;;;5014197;28;20114;-68
2022/07/15 07:53:49;;;;;;;11.98;3.35;;;19.30;95.40;;;;;;5014676;28;20144;-68
2022/07/15 07:56:23;;;;;;;11.15;2.83;;;19.50;95.90;;;;;;5014026;28;20030;-68
2022/07/15 07:58:49;;;;;;;3.58;2.33;;;19.70;95.20;;;;;;4997042;28;20033;-68
2022/07/15 08:01:14;;;;;;;4.35;2.55;;;20.30;93.60;;;;;;5014264;28;20030;-68
2022/07/15 08:03:40;;;;;;;5.32;2.35;;;20.20;93.90;;;;;;5014071;28;20022;-68
2022/07/15 08:06:06;;;;;;;10.18;4.10;;;20.50;94.00;;;;;;5013967;28;20042;-68
2022/07/15 08:08:31;;;;;;;5.28;2.67;;;20.60;94.00;;;;;;5014163;28;20088;-68
2022/07/15 08:10:57;;;;;;;9.25;3.45;;;21.10;92.80;;;;;;5014355;28;20023;-69
2022/07/15 08:13:24;;;;;;;4.43;2.80;;;20.30;91.80;;;;;;5014180;28;20395;-68
2022/07/15 08:15:50;;;;;;;7.65;2.92;;;20.90;92.10;;;;;;5014306;28;20022;-68
2022/07/15 08:18:15;;;;;;;9.38;3.95;;;21.00;92.30;;;;;;5014100;28;20026;-68
2022/07/15 08:20:41;;;;;;;9.93;3.80;;;21.10;90.50;;;;;;5014167;28;20026;-68
2022/07/15 08:23:07;;;;;;;11.55;5.30;;;21.10;92.00;;;;;;5014064;28;20080;-74
2022/07/15 08:25:37;;;;;;;8.32;4.68;;;21.30;89.90;;;;;;5013877;28;20134;-72
2022/07/15 08:28:03;;;;;;;8.02;4.10;;;21.30;90.70;;;;;;4996523;28;20434;-73
2022/07/15 08:30:29;;;;;;;8.80;2.97;;;21.60;90.10;;;;;;5013950;28;20386;-73
2022/07/15 08:32:56;;;;;;;4.25;1.60;;;21.50;84.10;;;;;;5013940;28;20022;-73
2022/07/15 08:35:22;;;;;;;5.45;2.35;;;20.70;84.80;;;;;;5013784;28;20480;-73
2022/07/15 08:37:48;;;;;;;6.97;2.10;;;21.30;87.20;;;;;;4996564;28;20030;-72
2022/07/15 08:40:14;;;;;;;5.63;2.42;;;22.70;79.40;;;;;;4996354;28;20030;-72
2022/07/15 08:42:42;;;;;;;4.55;2.65;;;24.40;73.70;;;;;;4996335;28;20476;-72
2022/07/15 08:45:08;;;;;;;8.98;3.08;;;24.50;65.10;;;;;;5013840;28;20065;-72
2022/07/15 08:47:33;;;;;;;8.10;3.33;;;24.90;65.60;;;;;;5013688;28;20014;-72
2022/07/15 08:49:59;;;;;;;5.43;2.85;;;26.00;61.70;;;;;;4979909;28;20021;-73
2022/07/15 08:52:25;;;;;;;4.95;2.63;;;26.30;57.50;;;;;;4979936;28;20109;-73
2022/07/15 08:54:51;;;;;;;2.85;1.50;;;26.70;57.70;;;;;;4996174;28;20045;-73
2022/07/15 08:57:17;;;;;;;4.25;2.13;;;26.30;56.40;;;;;;5013622;28;20026;-73
2022/07/15 08:59:45;;;;;;;3.88;1.50;;;25.70;56.50;;;;;;5013527;28;20028;-74
2022/07/15 09:02:11;;;;;;;5.43;1.90;;;27.70;52.20;;;;;;5013411;28;20042;-73
2022/07/15 09:05:15;;;;;;;3.38;1.27;;;26.10;54.60;;;;;;4995916;28;20073;-82
2022/07/15 09:07:59;;;;;;;7.93;1.60;;;24.50;57.70;;;;;;5013088;28;20046;-77
2022/07/15 09:10:41;;;;;;;6.20;1.50;;;22.90;63.80;;;;;;5013337;28;20021;-78
2022/07/15 09:13:07;;;;;;;4.05;1.30;;;23.30;67.90;;;;;;5013371;28;20022;-77
2022/07/15 09:15:38;;;;;;;8.10;1.83;;;23.00;67.10;;;;;;5013134;28;20084;-78
2022/07/15 09:18:08;;;;;;;3.55;1.30;;;23.40;67.30;;;;;;5013170;28;20084;-77
2022/07/15 09:20:35;;;;;;;3.63;1.58;;;22.80;68.60;;;;;;5013151;28;20442;-77
2022/07/15 09:23:00;;;;;;;3.25;1.13;;;22.90;65.10;;;;;;5013241;28;20076;-78
2022/07/15 09:25:27;;;;;;;5.93;1.55;;;22.50;65.70;;;;;;5012663;28;20029;-77
2022/07/15 09:27:53;;;;;;;9.57;1.98;;;21.40;71.60;;;;;;4995758;28;20026;-77
2022/07/15 09:33:36;;;;;;;4.00;1.30;;;23.60;65.90;;;;;;4999121;28;20037;-74
2022/07/15 09:36:08;;;;;;;5.43;1.45;;;24.80;64.10;;;;;;4984372;28;20403;-73
2022/07/15 09:38:41;;;;;;;3.92;1.08;;;26.30;60.10;;;;;;5012939;28;20418;-73
2022/07/15 09:41:19;;;;;;;4.57;1.27;;;26.30;56.00;;;;;;5013060;28;20029;-73
2022/07/15 09:43:47;;;;;;;3.33;1.33;;;25.80;54.00;;;;;;5013015;28;20439;-75
2022/07/15 09:46:13;;;;;;;4.18;1.30;;;24.90;57.30;;;;;;5012962;28;20026;-73
2022/07/15 09:48:40;;;;;;;2.15;1.33;;;24.50;61.30;;;;;;5011989;28;20480;-74
2022/07/15 09:51:06;;;;;;;2.85;1.02;;;24.20;59.40;;;;;;4995212;28;20053;-78
2022/07/15 09:53:32;;;;;;;7.40;1.88;;;22.80;62.10;;;;;;5011683;28;20574;-78
2022/07/15 09:55:58;;;;;;;3.47;1.45;;;22.80;63.30;;;;;;4995524;28;20056;-81
2022/07/15 09:58:23;;;;;;;1.52;0.95;;;22.80;67.20;;;;;;4995216;28;20058;-77
2022/07/15 10:00:51;;;;;;;7.82;1.40;;;21.10;70.60;;;;;;4979302;28;20080;-79
2022/07/15 10:03:16;;;;;;;3.88;1.30;;;22.90;70.00;;;;;;5012757;28;20072;-77
2022/07/15 10:05:42;;;;;;;2.03;1.20;;;23.20;66.60;;;;;;5012585;28;20630;-79
2022/07/15 10:08:09;;;;;;;3.90;1.13;;;23.70;60.90;;;;;;4994547;28;20122;-80
2022/07/15 10:10:36;;;;;;;5.38;1.52;;;24.10;60.70;;;;;;5012619;28;20052;-80
2022/07/15 10:13:35;;;;;;;5.55;2.50;;;23.90;64.50;;;;;;5012632;28;20037;-80
2022/07/15 10:16:10;;;;;;;3.30;1.38;;;25.90;61.10;;;;;;4995460;28;20030;-79
2022/07/15 10:18:44;;;;;;;2.58;1.25;;;26.40;56.00;;;;;;5011367;28;20030;-80
2022/07/15 10:21:31;;;;;;;2.83;1.45;;;24.60;57.90;;;;;;5010642;28;20450;-80
2022/07/15 10:24:15;;;;;;;2.67;1.13;;;23.40;62.90;;;;;;5008971;28;20030;-81
2022/07/15 10:27:06;;;;;;;3.78;1.27;;;24.00;65.50;;;;;;4996486;28;20387;-80
2022/07/15 10:29:32;;;;;;;1.80;1.00;;;23.30;63.40;;;;;;4997462;28;20403;-80
2022/07/15 10:31:58;;;;;;;4.63;1.55;;;25.10;63.50;;;;;;4974640;28;20023;-79
2022/07/15 10:34:29;;;;;;;3.17;1.33;;;26.40;57.90;;;;;;5009176;28;20045;-80
2022/07/15 10:36:57;;;;;;;5.97;1.55;;;27.00;55.30;;;;;;5011573;28;20029;-80
2022/07/15 10:39:26;;;;;;;5.10;1.20;;;26.00;56.10;;;;;;5014081;28;20038;-81
2022/07/15 10:41:59;;;;;;;7.13;1.65;;;24.10;59.50;;;;;;5015069;28;20030;-81
2022/07/15 10:44:33;;;;;;;21.23;2.90;;;23.90;60.20;;;;;;4980003;28;20042;-78
2022/07/15 10:47:14;;;;;;;2.20;1.60;;;23.60;62.80;;;;;;5013746;28;20033;-80
2022/07/15 10:49:49;;;;;;;3.22;1.30;;;22.80;67.90;;;;;;5009319;28;20124;-79
2022/07/15 10:52:15;;;;;;;5.68;1.90;;;23.30;68.20;;;;;;4975298;28;20030;-82
2022/07/15 10:54:48;;;;;;;4.07;1.60;;;23.30;65.30;;;;;;4968144;28;20026;-81
2022/07/15 10:57:16;;;;;;;5.32;2.00;;;22.70;65.90;;;;;;5014591;28;20595;-73
2022/07/15 10:59:49;;;;;;;3.25;1.60;;;23.20;68.20;;;;;;4997852;28;20045;-73
2022/07/15 11:02:16;;;;;;;4.30;1.67;;;24.80;61.40;;;;;;5015583;28;20109;-74
2022/07/15 11:04:42;;;;;;;3.70;1.02;;;24.70;63.00;;;;;;4997841;28;20033;-72
2022/07/15 11:07:09;;;;;;;4.55;1.65;;;26.40;58.00;;;;;;5015123;28;20042;-71
2022/07/15 11:09:52;;;;;;;6.00;1.85;;;26.40;57.60;;;;;;5015426;28;20030;-74
2022/07/15 11:12:29;;;;;;;6.85;1.50;;;24.90;57.90;;;;;;5015402;28;20026;-70
2022/07/15 11:14:55;;;;;;;1.63;0.90;;;25.20;58.20;;;;;;5015469;28;20025;-71
2022/07/15 11:17:27;;;;;;;5.28;1.40;;;26.00;59.20;;;;;;5015133;28;20022;-71
2022/07/15 11:20:03;;;;;;;7.25;1.40;;;25.80;56.70;;;;;;5015296;28;20121;-72
2022/07/15 11:22:29;;;;;;;3.55;1.30;;;26.00;60.00;;;;;;4997771;28;20491;-77
2022/07/15 11:24:55;;;;;;;3.28;1.65;;;25.30;58.60;;;;;;5005795;28;20025;-76
2022/07/15 11:27:21;;;;;;;4.25;1.55;;;26.50;60.10;;;;;;5011831;28;20101;-76
2022/07/15 11:29:50;;;;;;;1.92;1.33;;;27.00;60.50;;;;;;5014231;28;20041;-77
2022/07/15 11:32:16;;;;;;;5.95;2.13;;;26.80;54.60;;;;;;5013617;28;20487;-78
2022/07/15 11:34:50;;;;;;;3.88;2.65;;;27.40;57.50;;;;;;5014033;28;20037;-78
2022/07/15 11:37:18;;;;;;;7.13;2.67;;;28.30;53.00;;;;;;5014134;28;20084;-79
2022/07/15 11:39:48;;;;;;;5.45;1.73;;;27.60;51.60;;;;;;5014156;28;20483;-79
2022/07/15 11:48:27;;;;;;;4.63;1.48;;;25.50;55.50;;;;;;5008281;28;20072;-68
2022/07/15 11:50:56;;;;;;;3.65;1.20;;;24.90;56.20;;;;;;4994210;28;20046;-69
2022/07/15 11:53:23;;;;;;;3.20;1.08;;;24.00;58.10;;;;;;5000672;28;20520;-69
2022/07/15 11:55:53;;;;;;;4.78;1.05;;;24.10;56.40;;;;;;5013364;28;20396;-69
2022/07/15 11:58:39;;;;;;;5.47;1.80;;;26.00;55.40;;;;;;5012473;28;20396;-69
2022/07/15 12:01:09;;;;;;;4.03;1.50;;;24.70;55.40;;;;;;5008880;28;20026;-68
2022/07/15 12:03:40;;;;;;;3.92;1.40;;;24.50;53.60;;;;;;5009882;28;20065;-68
2022/07/15 12:06:15;;;;;;;4.40;1.33;;;23.90;58.40;;;;;;5007144;28;20026;-68
2022/07/15 12:08:48;;;;;;;3.28;1.27;;;24.00;58.50;;;;;;5017794;28;20029;-69
2022/07/15 12:11:40;;;;;;;2.72;1.00;;;25.70;56.90;;;;;;5032310;28;20030;-68
2022/07/15 12:14:08;;;;;;;8.25;1.35;;;26.40;54.40;;;;;;4990307;28;20076;-68
2022/07/15 12:16:36;;;;;;;5.65;1.35;;;25.50;55.00;;;;;;4993106;28;20042;-68
2022/07/15 12:19:24;;;;;;;4.57;1.27;;;25.20;56.00;;;;;;4999619;28;20034;-69
2022/07/15 12:21:51;;;;;;;7.40;1.60;;;25.90;58.20;;;;;;4979187;28;20026;-69
2022/07/15 12:24:21;;;;;;;2.10;1.40;;;26.00;54.00;;;;;;5012678;28;20439;-69
2022/07/15 12:26:49;;;;;;;3.63;1.48;;;26.60;54.70;;;;;;5012892;28;20033;-67
2022/07/15 12:29:19;;;;;;;3.72;1.42;;;25.50;55.30;;;;;;5012994;28;20387;-68
2022/07/15 12:32:04;;;;;;;2.85;1.00;;;24.50;56.10;;;;;;5011558;28;20041;-68
2022/07/15 12:34:52;;;;;;;4.43;1.38;;;25.80;55.10;;;;;;5012587;28;20033;-68
2022/07/15 12:37:17;;;;;;;4.43;1.00;;;26.70;56.50;;;;;;5012376;28;20068;-72
2022/07/15 12:40:03;;;;;;;3.67;1.58;;;27.20;51.30;;;;;;5011987;28;20061;-69
2022/07/15 12:42:40;;;;;;;5.47;1.02;;;26.50;52.50;;;;;;5011661;28;20030;-69
2022/07/15 12:45:10;;;;;;;3.03;1.00;;;25.70;54.20;;;;;;5012372;28;20088;-67
2022/07/15 12:47:37;;;;;;;3.42;1.30;;;25.30;55.20;;;;;;5012068;28;20061;-67
2022/07/15 12:50:04;;;;;;;3.30;1.38;;;24.90;56.90;;;;;;5012234;28;20105;-74
2022/07/15 12:52:29;;;;;;;3.35;1.13;;;24.10;57.50;;;;;;4978239;28;20053;-76
2022/07/15 12:54:55;;;;;;;4.72;2.38;;;24.30;57.70;;;;;;5012302;28;20056;-79
2022/07/15 12:57:26;;;;;;;4.75;1.70;;;23.60;58.70;;;;;;5012411;28;20057;-79
2022/07/15 12:59:58;;;;;;;4.78;1.15;;;23.90;58.60;;;;;;4994608;28;20088;-78
2022/07/15 13:02:24;;;;;;;6.75;1.30;;;24.20;58.40;;;;;;5011686;28;20029;-78